Tridens — PBVO — position and weather

sailwx.info

Track history (hours):
 
Tides and Currents Weather Stations Pressure Air Temp Water Temp Dewpoint Dewpoint Depression Visibility Wind Speed Wind Dir Waves Ship Positions

Oceanographic research ship Tridens (Netherlands)

Detailed information on ship capabilities available from University of Delaware's Ocean Information Center.

Last reported at 2016-May-01 08:04 UTC. Time now 2016-May-02 21:20 UTC.
Position N 48°16' W 005°07'.

Length 74 m; beam 14 m.

Type: Other ship. MMSI: 244033000.

Date/timePositionNaut miles runAvg speedWind from/ knotsBaromVisibWave heightAir tempDewpointWater temp
2016-May-01 08:04N 48°16' W 005°07'815.1
2016-May-01 07:33N 48°17' W 004°55'1514.7
2016-May-01 06:33N 48°21' W 004°34'4 4.3
2016-May-01 05:33N 48°23' W 004°29'0 0.0
2016-May-01 04:33N 48°23' W 004°29'0 0.0
2016-May-01 03:33N 48°23' W 004°29'0 0.0
2016-May-01 02:33N 48°23' W 004°29'0 0.0
2016-May-01 01:33N 48°23' W 004°29'0 0.0
2016-May-01 00:33N 48°23' W 004°29'0 0.0
2016-Apr-30 23:33N 48°23' W 004°29'0 0.0
2016-Apr-30 22:33N 48°23' W 004°29'0 0.0
2016-Apr-30 21:33N 48°23' W 004°29'0 0.0
2016-Apr-30 20:33N 48°23' W 004°29'0 0.0
2016-Apr-30 19:33N 48°23' W 004°29'0 0.0
2016-Apr-30 18:33N 48°23' W 004°29'0 0.0
2016-Apr-30 17:33N 48°23' W 004°29'0 0.0
2016-Apr-30 16:33N 48°23' W 004°29'0 0.0
2016-Apr-30 15:33N 48°23' W 004°29'0 0.0
2016-Apr-30 14:33N 48°23' W 004°29'0 0.0
2016-Apr-30 13:33N 48°23' W 004°29'0 0.0
2016-Apr-30 12:33N 48°23' W 004°29'0 0.0
2016-Apr-30 11:33N 48°23' W 004°29'0 0.0
2016-Apr-30 10:33N 48°23' W 004°29'0 0.0
2016-Apr-30 09:33N 48°23' W 004°29'0 0.0
2016-Apr-30 08:33N 48°23' W 004°29'0 0.0
2016-Apr-30 07:33N 48°23' W 004°29'0 0.0
2016-Apr-30 06:33N 48°23' W 004°29'0 0.0
2016-Apr-30 05:33N 48°23' W 004°29'0 0.0
2016-Apr-30 04:33N 48°23' W 004°29'0 0.0
2016-Apr-30 03:33N 48°23' W 004°29'0 0.0
2016-Apr-30 02:33N 48°23' W 004°29'0 0.0
2016-Apr-30 01:33N 48°23' W 004°29'0 0.0
2016-Apr-30 00:33N 48°23' W 004°29'0 0.0
2016-Apr-29 23:33N 48°23' W 004°29'0 0.0
2016-Apr-29 22:33N 48°23' W 004°29'2 1.6
2016-Apr-29 21:34N 48°21' W 004°30'1313.4
2016-Apr-29 20:33N 48°17' W 004°49'1414.3
2016-Apr-29 19:33N 48°21' W 005°10'  
2016-Apr-27 12:09N 47°15' W 003°24'610.3
2016-Apr-27 11:34N 47°15' W 003°16'67 1.8
2016-Apr-25 21:25N 46°20' W 002°18'3115.2
2016-Apr-25 19:22N 46°50' W 002°34'1214.3
2016-Apr-25 18:33N 47°01' W 002°32'1212.6
2016-Apr-25 17:33N 47°10' W 002°19'8 7.9
2016-Apr-25 16:33N 47°16' W 002°12'1 0.6
2016-Apr-25 15:28N 47°17' W 002°12'0 0.0
2016-Apr-25 13:07N 47°17' W 002°12'0 0.0
2016-Apr-25 06:28N 47°17' W 002°12'0 0.0
2016-Apr-25 05:31N 47°17' W 002°12'0 0.0
2016-Apr-25 04:31N 47°17' W 002°12'0 0.0
2016-Apr-25 03:31N 47°17' W 002°12'0 0.0
2016-Apr-25 02:31N 47°17' W 002°12'0 0.0
2016-Apr-25 01:28N 47°17' W 002°12'0 0.0
2016-Apr-25 00:31N 47°17' W 002°12'0 0.0
2016-Apr-24 23:31N 47°17' W 002°12'0 0.0
2016-Apr-24 22:31N 47°17' W 002°12'0 0.0
2016-Apr-24 21:31N 47°17' W 002°12'0 0.0
2016-Apr-24 20:31N 47°17' W 002°12'0 0.0
2016-Apr-24 19:31N 47°17' W 002°12'0 0.0
2016-Apr-24 18:07N 47°17' W 002°12'0 0.0
2016-Apr-24 16:04N 47°17' W 002°12'0 0.0
2016-Apr-24 15:04N 47°17' W 002°12'0 0.0
2016-Apr-24 12:25N 47°17' W 002°12'0 0.0
2016-Apr-24 11:22N 47°17' W 002°12'0 0.0
2016-Apr-24 08:22N 47°17' W 002°12'0 0.0
2016-Apr-24 07:31N 47°17' W 002°12'0 0.0
2016-Apr-24 06:31N 47°17' W 002°12'0 0.0
2016-Apr-24 05:31N 47°17' W 002°12'0 0.0
2016-Apr-24 04:31N 47°17' W 002°12'0 0.0
2016-Apr-24 03:31N 47°17' W 002°12'0 0.0
2016-Apr-24 02:25N 47°17' W 002°12'0 0.0
2016-Apr-24 01:28N 47°17' W 002°12'0 0.0
2016-Apr-24 00:31N 47°17' W 002°12'0 0.0
2016-Apr-23 23:31N 47°17' W 002°12'0 0.0
2016-Apr-23 22:25N 47°17' W 002°12'0 0.0
2016-Apr-23 21:31N 47°17' W 002°12'0 0.0
2016-Apr-23 20:28N 47°17' W 002°12'0 0.0
2016-Apr-23 19:31N 47°17' W 002°12'0 0.0
2016-Apr-23 18:31N 47°17' W 002°12'0 0.0
2016-Apr-23 17:25N 47°17' W 002°12'0 0.0
2016-Apr-23 16:31N 47°17' W 002°12'0 0.0
2016-Apr-23 15:25N 47°17' W 002°12'0 0.0
2016-Apr-23 14:31N 47°17' W 002°12'0 0.0
2016-Apr-23 13:25N 47°17' W 002°12'0 0.0
2016-Apr-23 11:22N 47°17' W 002°12'0 0.0
2016-Apr-23 10:31N 47°17' W 002°12'0 0.0
2016-Apr-23 09:16N 47°17' W 002°12'0 0.0
2016-Apr-23 08:31N 47°17' W 002°12'0 0.0
2016-Apr-23 07:16N 47°17' W 002°12'0 0.0
2016-Apr-23 06:04N 47°17' W 002°12'0 0.0
2016-Apr-23 05:33N 47°17' W 002°12'1 0.7
2016-Apr-23 04:31N 47°16' W 002°12'6 5.8
2016-Apr-23 03:34N 47°12' W 002°17'1312.8
2016-Apr-23 02:33N 47°02' W 002°30'12 2.5
2016-Apr-22 21:30N 46°51' W 002°39'10 4.0
2016-Apr-22 19:07N 46°45' W 002°28'  
Track history (hours):
 
Tides and Currents Weather Stations Pressure Air Temp Water Temp Dewpoint Dewpoint Depression Visibility Wind Speed Wind Dir Waves Ship Positions

Oceanographic research ship Tridens (Netherlands)

Detailed information on ship capabilities available from University of Delaware's Ocean Information Center.

Last reported at 2016-May-01 08:04 UTC. Time now 2016-May-02 21:20 UTC.
Position N 48°16' W 005°07'.

Length 74 m; beam 14 m.

Type: Other ship. MMSI: 244033000.

Date/timePositionNaut miles runAvg speedWind from/ knotsBaromVisibWave heightAir tempDewpointWater temp
2016-May-01 08:04N 48°16' W 005°07'815.1
2016-May-01 07:33N 48°17' W 004°55'1514.7
2016-May-01 06:33N 48°21' W 004°34'4 4.3
2016-May-01 05:33N 48°23' W 004°29'0 0.0
2016-May-01 04:33N 48°23' W 004°29'0 0.0
2016-May-01 03:33N 48°23' W 004°29'0 0.0
2016-May-01 02:33N 48°23' W 004°29'0 0.0
2016-May-01 01:33N 48°23' W 004°29'0 0.0
2016-May-01 00:33N 48°23' W 004°29'0 0.0
2016-Apr-30 23:33N 48°23' W 004°29'0 0.0
2016-Apr-30 22:33N 48°23' W 004°29'0 0.0
2016-Apr-30 21:33N 48°23' W 004°29'0 0.0
2016-Apr-30 20:33N 48°23' W 004°29'0 0.0
2016-Apr-30 19:33N 48°23' W 004°29'0 0.0
2016-Apr-30 18:33N 48°23' W 004°29'0 0.0
2016-Apr-30 17:33N 48°23' W 004°29'0 0.0
2016-Apr-30 16:33N 48°23' W 004°29'0 0.0
2016-Apr-30 15:33N 48°23' W 004°29'0 0.0
2016-Apr-30 14:33N 48°23' W 004°29'0 0.0
2016-Apr-30 13:33N 48°23' W 004°29'0 0.0
2016-Apr-30 12:33N 48°23' W 004°29'0 0.0
2016-Apr-30 11:33N 48°23' W 004°29'0 0.0
2016-Apr-30 10:33N 48°23' W 004°29'0 0.0
2016-Apr-30 09:33N 48°23' W 004°29'0 0.0
2016-Apr-30 08:33N 48°23' W 004°29'0 0.0
2016-Apr-30 07:33N 48°23' W 004°29'0 0.0
2016-Apr-30 06:33N 48°23' W 004°29'0 0.0
2016-Apr-30 05:33N 48°23' W 004°29'0 0.0
2016-Apr-30 04:33N 48°23' W 004°29'0 0.0
2016-Apr-30 03:33N 48°23' W 004°29'0 0.0
2016-Apr-30 02:33N 48°23' W 004°29'0 0.0
2016-Apr-30 01:33N 48°23' W 004°29'0 0.0
2016-Apr-30 00:33N 48°23' W 004°29'0 0.0
2016-Apr-29 23:33N 48°23' W 004°29'0 0.0
2016-Apr-29 22:33N 48°23' W 004°29'2 1.6
2016-Apr-29 21:34N 48°21' W 004°30'1313.4
2016-Apr-29 20:33N 48°17' W 004°49'1414.3
2016-Apr-29 19:33N 48°21' W 005°10'  
2016-Apr-27 12:09N 47°15' W 003°24'610.3
2016-Apr-27 11:34N 47°15' W 003°16'67 1.8
2016-Apr-25 21:25N 46°20' W 002°18'3115.2
2016-Apr-25 19:22N 46°50' W 002°34'1214.3
2016-Apr-25 18:33N 47°01' W 002°32'1212.6
2016-Apr-25 17:33N 47°10' W 002°19'8 7.9
2016-Apr-25 16:33N 47°16' W 002°12'1 0.6
2016-Apr-25 15:28N 47°17' W 002°12'0 0.0
2016-Apr-25 13:07N 47°17' W 002°12'0 0.0
2016-Apr-25 06:28N 47°17' W 002°12'0 0.0
2016-Apr-25 05:31N 47°17' W 002°12'0 0.0
2016-Apr-25 04:31N 47°17' W 002°12'0 0.0
2016-Apr-25 03:31N 47°17' W 002°12'0 0.0
2016-Apr-25 02:31N 47°17' W 002°12'0 0.0
2016-Apr-25 01:28N 47°17' W 002°12'0 0.0
2016-Apr-25 00:31N 47°17' W 002°12'0 0.0
2016-Apr-24 23:31N 47°17' W 002°12'0 0.0
2016-Apr-24 22:31N 47°17' W 002°12'0 0.0
2016-Apr-24 21:31N 47°17' W 002°12'0 0.0
2016-Apr-24 20:31N 47°17' W 002°12'0 0.0
2016-Apr-24 19:31N 47°17' W 002°12'0 0.0
2016-Apr-24 18:07N 47°17' W 002°12'0 0.0
2016-Apr-24 16:04N 47°17' W 002°12'0 0.0
2016-Apr-24 15:04N 47°17' W 002°12'0 0.0
2016-Apr-24 12:25N 47°17' W 002°12'0 0.0
2016-Apr-24 11:22N 47°17' W 002°12'0 0.0
2016-Apr-24 08:22N 47°17' W 002°12'0 0.0
2016-Apr-24 07:31N 47°17' W 002°12'0 0.0
2016-Apr-24 06:31N 47°17' W 002°12'0 0.0
2016-Apr-24 05:31N 47°17' W 002°12'0 0.0
2016-Apr-24 04:31N 47°17' W 002°12'0 0.0
2016-Apr-24 03:31N 47°17' W 002°12'0 0.0
2016-Apr-24 02:25N 47°17' W 002°12'0 0.0
2016-Apr-24 01:28N 47°17' W 002°12'0 0.0
2016-Apr-24 00:31N 47°17' W 002°12'0 0.0
2016-Apr-23 23:31N 47°17' W 002°12'0 0.0
2016-Apr-23 22:25N 47°17' W 002°12'0 0.0
2016-Apr-23 21:31N 47°17' W 002°12'0 0.0
2016-Apr-23 20:28N 47°17' W 002°12'0 0.0
2016-Apr-23 19:31N 47°17' W 002°12'0 0.0
2016-Apr-23 18:31N 47°17' W 002°12'0 0.0
2016-Apr-23 17:25N 47°17' W 002°12'0 0.0
2016-Apr-23 16:31N 47°17' W 002°12'0 0.0
2016-Apr-23 15:25N 47°17' W 002°12'0 0.0
2016-Apr-23 14:31N 47°17' W 002°12'0 0.0
2016-Apr-23 13:25N 47°17' W 002°12'0 0.0
2016-Apr-23 11:22N 47°17' W 002°12'0 0.0
2016-Apr-23 10:31N 47°17' W 002°12'0 0.0
2016-Apr-23 09:16N 47°17' W 002°12'0 0.0
2016-Apr-23 08:31N 47°17' W 002°12'0 0.0
2016-Apr-23 07:16N 47°17' W 002°12'0 0.0
2016-Apr-23 06:04N 47°17' W 002°12'0 0.0
2016-Apr-23 05:33N 47°17' W 002°12'1 0.7
2016-Apr-23 04:31N 47°16' W 002°12'6 5.8
2016-Apr-23 03:34N 47°12' W 002°17'1312.8
2016-Apr-23 02:33N 47°02' W 002°30'12 2.5
2016-Apr-22 21:30N 46°51' W 002°39'10 4.0
2016-Apr-22 19:07N 46°45' W 002°28'  

Dump ship's entire track history